Time;durP1;ratioP1;P1;durP2;ratioP2;P2;SDS_P1;SDS_P2;PMS_P1;PMS_P2;Temp;Humidity;BMP_temperature;BMP_pressure;BME280_temperature;BME280_humidity;BME280_pressure;Samples;Min_cycle;Max_cycle;Signal;HPM_P1;HPM_P2
2021/12/25 00:04:48;;;;;;;1.10;0.80;;;20.50;26.80;20.90;92808.00;;;;10355288;28;46345;-63
2021/12/25 00:09:49;;;;;;;1.00;0.80;;;20.50;26.80;20.90;92790.00;;;;10336943;28;45351;-62
2021/12/25 00:14:49;;;;;;;0.98;0.77;;;20.50;26.80;20.90;92792.00;;;;10305575;28;47007;-62
2021/12/25 00:19:50;;;;;;;0.90;0.80;;;20.50;26.80;20.90;92788.00;;;;10313771;28;45464;-63
2021/12/25 00:24:51;;;;;;;1.30;0.90;;;20.50;26.80;20.90;92801.00;;;;10296005;28;45253;-63
2021/12/25 00:30:14;;;;;;;0.70;0.70;;;20.50;26.90;20.90;92803.00;;;;10312997;28;45354;-63
2021/12/25 00:35:15;;;;;;;0.95;0.80;;;20.50;26.90;20.90;92773.00;;;;10299203;28;45236;-63
2021/12/25 00:40:17;;;;;;;1.30;1.00;;;20.50;27.40;20.90;92775.00;;;;10295712;28;46480;-63
2021/12/25 00:45:18;;;;;;;1.27;0.90;;;20.40;26.80;20.90;92788.00;;;;10313258;28;45332;-63
2021/12/25 00:50:19;;;;;;;0.98;0.77;;;20.40;26.90;20.80;92777.00;;;;10295516;28;45339;-63
2021/12/25 00:55:19;;;;;;;0.80;0.80;;;20.40;26.90;20.90;92784.00;;;;10294541;28;45130;-62
2021/12/25 01:00:20;;;;;;;1.73;0.90;;;20.40;26.90;20.90;92787.00;;;;10294630;28;46678;-63
2021/12/25 01:05:22;;;;;;;0.85;0.70;;;20.40;26.90;20.80;92783.00;;;;10293894;28;45315;-62
2021/12/25 01:10:22;;;;;;;0.80;0.70;;;20.40;26.90;20.80;92765.00;;;;10310478;28;47122;-62
2021/12/25 01:15:34;;;;;;;0.70;0.70;;;20.40;26.90;20.80;92781.00;;;;10293921;28;46659;-62
2021/12/25 01:26:11;;;;;;;0.90;0.70;;;20.40;26.90;20.80;92763.00;;;;10310884;28;45205;-63
2021/12/25 01:36:48;;;;;;;0.65;0.60;;;20.40;26.90;20.80;92771.00;;;;10297091;28;45200;-63
2021/12/25 01:52:15;;;;;;;0.85;0.70;;;20.40;27.00;20.80;92763.00;;;;10303546;28;45238;-62
2021/12/25 01:57:16;;;;;;;0.82;0.70;;;20.40;27.00;20.80;92769.00;;;;10300594;28;45237;-63
2021/12/25 02:02:17;;;;;;;0.43;0.40;;;20.40;27.00;20.80;92748.00;;;;10295836;28;46922;-63
2021/12/25 02:07:18;;;;;;;0.85;0.60;;;20.40;27.00;20.80;92753.00;;;;10299028;28;45375;-63
2021/12/25 02:12:19;;;;;;;0.80;0.60;;;20.40;27.00;20.80;92743.00;;;;10300257;28;45281;-63
2021/12/25 02:17:27;;;;;;;0.60;0.60;;;20.40;27.00;20.80;92737.00;;;;10317625;28;46374;-63
2021/12/25 02:22:29;;;;;;;0.93;0.70;;;20.40;27.10;20.80;92755.00;;;;10317279;28;45651;-62
2021/12/25 02:27:30;;;;;;;0.63;0.60;;;20.40;27.10;20.80;92760.00;;;;10317470;28;45554;-62
2021/12/25 02:32:31;;;;;;;0.63;0.50;;;20.40;27.10;20.80;92731.00;;;;10317277;28;45396;-63
2021/12/25 02:37:31;;;;;;;0.70;0.50;;;20.40;27.10;20.80;92752.00;;;;10316714;28;46429;-62
2021/12/25 02:42:34;;;;;;;0.75;0.63;;;20.30;27.10;20.80;92739.00;;;;10298407;28;45381;-62
2021/12/25 02:47:36;;;;;;;0.50;0.50;;;20.30;27.10;20.80;92738.00;;;;10298174;28;47132;-62
2021/12/25 02:52:38;;;;;;;0.60;0.60;;;20.30;27.10;20.80;92752.00;;;;10298311;28;45349;-62
2021/12/25 02:57:39;;;;;;;0.60;0.50;;;20.30;27.10;20.80;92741.00;;;;10296331;28;47025;-62
2021/12/25 03:02:39;;;;;;;0.70;0.57;;;20.30;27.10;20.80;92724.00;;;;10298043;28;45418;-62
2021/12/25 03:07:40;;;;;;;0.80;0.52;;;20.30;27.10;20.80;92723.00;;;;10297508;28;45329;-62
2021/12/25 03:12:54;;;;;;;0.95;0.63;;;20.30;27.20;20.70;92725.00;;;;10297267;28;47908;-62
2021/12/25 03:17:57;;;;;;;0.88;0.60;;;20.30;27.10;20.70;92713.00;;;;10298840;28;47085;-62
2021/12/25 03:22:58;;;;;;;0.85;0.60;;;20.30;27.20;20.70;92720.00;;;;10294351;28;46286;-62
2021/12/25 03:27:59;;;;;;;0.57;0.52;;;20.30;27.20;20.70;92720.00;;;;10294289;28;47364;-62
2021/12/25 03:33:00;;;;;;;0.50;0.50;;;20.30;27.20;20.70;92731.00;;;;10312407;28;45452;-62
2021/12/25 03:38:03;;;;;;;0.70;0.52;;;20.30;27.20;20.70;92733.00;;;;10294252;28;45658;-62
2021/12/25 03:43:05;;;;;;;0.95;0.60;;;20.30;27.20;20.70;92735.00;;;;10277883;28;46952;-62
2021/12/25 03:58:31;;;;;;;0.73;0.50;;;20.20;27.20;20.70;92708.00;;;;10313551;28;45178;-62
2021/12/25 04:03:48;;;;;;;0.52;0.50;;;20.20;27.20;20.70;92712.00;;;;10313848;28;46102;-62
2021/12/25 04:08:51;;;;;;;0.63;0.50;;;20.30;27.30;20.70;92710.00;;;;10313260;28;46378;-62
2021/12/25 04:13:52;;;;;;;0.68;0.50;;;20.20;27.30;20.70;92703.00;;;;10272925;28;46215;-62
2021/12/25 04:18:54;;;;;;;0.73;0.60;;;20.20;27.20;20.70;92707.00;;;;10272694;28;45509;-62
2021/12/25 04:23:55;;;;;;;0.70;0.50;;;20.20;27.30;20.70;92719.00;;;;10254905;28;45463;-61
2021/12/25 05:05:40;;;;;;;0.57;0.43;;;20.20;27.40;20.70;92734.00;;;;10296522;28;45273;-62
2021/12/25 05:10:40;;;;;;;0.50;0.50;;;20.20;27.30;20.70;92712.00;;;;10311936;28;45193;-62
2021/12/25 05:15:42;;;;;;;0.52;0.52;;;20.20;27.30;20.80;92718.00;;;;10294056;28;45253;-62
2021/12/25 05:20:43;;;;;;;0.98;0.60;;;20.30;27.40;20.80;92694.00;;;;10296649;28;47203;-64
2021/12/25 05:25:43;;;;;;;0.70;0.40;;;20.40;27.40;20.80;92692.00;;;;10319040;28;46191;-63
2021/12/25 05:30:44;;;;;;;0.85;0.52;;;20.40;27.40;20.90;92686.00;;;;10301678;28;46860;-62
2021/12/25 05:35:45;;;;;;;1.27;0.55;;;20.40;27.40;20.90;92694.00;;;;10318711;28;45595;-64
2021/12/25 05:40:48;;;;;;;0.60;0.45;;;20.40;27.40;20.90;92708.00;;;;10301048;28;47251;-62
2021/12/25 05:45:49;;;;;;;0.50;0.38;;;20.50;27.40;20.90;92722.00;;;;10300539;28;45504;-63
2021/12/25 05:50:50;;;;;;;0.65;0.50;;;20.50;27.40;21.00;92716.00;;;;10301486;28;45656;-62
2021/12/25 05:55:50;;;;;;;0.80;0.47;;;20.50;27.40;21.00;92726.00;;;;10300835;28;45127;-62
2021/12/25 06:00:51;;;;;;;0.40;0.40;;;20.50;27.40;21.00;92724.00;;;;10301128;28;45289;-62
2021/12/25 06:05:52;;;;;;;0.40;0.40;;;20.50;27.40;21.00;92696.00;;;;10300611;28;46693;-63
2021/12/25 06:10:53;;;;;;;1.08;0.50;;;20.60;27.40;21.00;92741.00;;;;10300211;28;48076;-63
2021/12/25 06:15:56;;;;;;;0.57;0.50;;;20.60;27.40;21.10;92728.00;;;;10300142;28;45538;-63
2021/12/25 06:20:56;;;;;;;0.70;0.57;;;20.60;27.40;21.10;92753.00;;;;10299948;28;48083;-63
2021/12/25 06:25:57;;;;;;;0.57;0.47;;;20.60;27.40;21.10;92744.00;;;;10299430;28;45304;-62
2021/12/25 06:30:58;;;;;;;1.13;0.50;;;20.60;27.40;21.10;92749.00;;;;10316024;28;46599;-63
2021/12/25 06:35:58;;;;;;;0.90;0.45;;;20.60;27.40;21.10;92742.00;;;;10316361;28;46466;-62
2021/12/25 06:40:59;;;;;;;0.40;0.40;;;20.60;27.40;21.10;92715.00;;;;10298357;28;46264;-63
2021/12/25 06:46:00;;;;;;;0.60;0.50;;;20.60;27.40;21.10;92720.00;;;;10316172;28;46305;-62
2021/12/25 06:51:01;;;;;;;0.28;0.28;;;20.60;27.50;21.20;92720.00;;;;10316979;28;45312;-62
2021/12/25 06:56:03;;;;;;;0.38;0.30;;;20.70;27.50;21.20;92739.00;;;;10299012;28;45319;-63
2021/12/25 07:01:04;;;;;;;0.30;0.30;;;20.70;27.50;21.10;92724.00;;;;10298957;28;46925;-62
2021/12/25 07:06:04;;;;;;;0.57;0.40;;;20.70;27.50;21.20;92730.00;;;;10298357;28;45221;-63
2021/12/25 07:11:05;;;;;;;0.63;0.40;;;20.70;27.50;21.20;92722.00;;;;10315682;28;45142;-62
2021/12/25 07:16:06;;;;;;;0.50;0.30;;;20.70;27.50;21.20;92709.00;;;;10298078;28;45198;-64
2021/12/25 07:21:07;;;;;;;0.40;0.30;;;20.70;27.50;21.20;92724.00;;;;10313842;28;47285;-63
2021/12/25 07:26:08;;;;;;;0.50;0.20;;;20.70;27.50;21.20;92732.00;;;;10297782;28;46637;-63
2021/12/25 07:31:09;;;;;;;0.20;0.20;;;20.70;27.60;21.20;92733.00;;;;10298110;28;45169;-63
2021/12/25 07:36:11;;;;;;;0.50;0.20;;;20.80;27.60;21.20;92732.00;;;;10297193;28;45360;-63
2021/12/25 07:41:12;;;;;;;0.30;0.22;;;20.80;27.70;21.20;92714.00;;;;10296811;28;47140;-63
2021/12/25 07:46:13;;;;;;;0.35;0.20;;;20.80;27.70;21.20;92699.00;;;;10313992;28;45399;-62
2021/12/25 07:51:13;;;;;;;0.57;0.32;;;20.80;27.70;21.20;92708.00;;;;10296775;28;48209;-63
2021/12/25 07:56:14;;;;;;;0.75;0.30;;;20.80;27.70;21.20;92727.00;;;;10296596;28;46034;-63
2021/12/25 08:01:15;;;;;;;0.43;0.30;;;20.80;27.70;21.20;92699.00;;;;10293695;28;47104;-62
2021/12/25 08:06:16;;;;;;;0.50;0.30;;;20.80;27.80;21.20;92721.00;;;;10313570;28;45635;-63
2021/12/25 08:11:16;;;;;;;0.57;0.38;;;20.80;27.80;21.30;92742.00;;;;10294305;28;46161;-63
2021/12/25 08:16:17;;;;;;;0.43;0.40;;;20.80;27.80;21.30;92744.00;;;;10256131;28;45274;-62
2021/12/25 08:21:18;;;;;;;0.85;0.30;;;20.80;27.90;21.20;92734.00;;;;10273391;28;45444;-63
2021/12/25 08:26:19;;;;;;;0.73;0.45;;;20.80;27.90;21.30;92752.00;;;;10272736;28;45592;-62
2021/12/25 08:31:19;;;;;;;0.50;0.40;;;20.80;27.90;21.30;92748.00;;;;10255240;28;47459;-63
2021/12/25 08:36:20;;;;;;;0.35;0.30;;;20.80;27.90;21.30;92752.00;;;;10254825;28;45284;-67
2021/12/25 08:41:25;;;;;;;0.90;0.50;;;20.80;28.10;21.20;92735.00;;;;10255443;28;45396;-65
2021/12/25 08:46:45;;;;;;;1.00;0.35;;;20.80;28.50;21.20;92746.00;;;;10255906;28;45501;-64
2021/12/25 08:51:46;;;;;;;0.63;0.40;;;20.80;28.40;21.10;92746.00;;;;10258069;28;45586;-64
2021/12/25 08:56:47;;;;;;;3.28;0.50;;;20.70;28.40;21.10;92745.00;;;;10259221;28;45490;-63
2021/12/25 09:01:48;;;;;;;1.50;0.40;;;20.70;28.40;21.10;92736.00;;;;10262327;28;45468;-63
2021/12/25 09:06:49;;;;;;;0.55;0.55;;;20.70;28.40;21.20;92739.00;;;;10278845;28;45173;-63
2021/12/25 09:11:49;;;;;;;1.20;0.40;;;20.70;28.40;21.10;92733.00;;;;10268275;28;47282;-63
2021/12/25 09:16:51;;;;;;;0.45;0.40;;;20.70;28.40;21.10;92752.00;;;;10301766;28;45137;-63
2021/12/25 09:21:51;;;;;;;0.45;0.40;;;20.70;28.40;21.10;92737.00;;;;10301989;28;46699;-63
2021/12/25 09:26:52;;;;;;;0.75;0.50;;;20.70;28.50;21.10;92738.00;;;;10301426;28;45287;-63
2021/12/25 09:31:53;;;;;;;0.50;0.40;;;20.60;28.40;21.10;92750.00;;;;10296535;28;46680;-64
2021/12/25 09:36:55;;;;;;;1.23;0.60;;;20.70;28.40;21.20;92734.00;;;;10318731;28;45449;-63
2021/12/25 09:47:06;;;;;;;0.88;0.60;;;20.70;28.60;21.10;92744.00;;;;10932762;23;45922;-64
2021/12/25 09:52:07;;;;;;;0.63;0.45;;;20.60;28.60;21.10;92750.00;;;;10259045;28;46784;-64
2021/12/25 09:57:08;;;;;;;1.10;0.65;;;20.60;28.50;21.10;92765.00;;;;10266074;28;45245;-63
2021/12/25 10:02:13;;;;;;;0.80;0.55;;;20.70;28.60;21.10;92765.00;;;;10274616;28;45229;-60
2021/12/25 10:07:24;;;;;;;1.23;0.63;;;20.70;28.60;21.10;92764.00;;;;10275619;28;46550;-60
2021/12/25 10:12:45;;;;;;;1.23;0.85;;;20.60;28.60;21.10;92777.00;;;;10275579;28;45338;-60
2021/12/25 10:17:56;;;;;;;0.52;0.50;;;20.60;28.70;21.10;92774.00;;;;10275063;28;45480;-60
2021/12/25 10:23:09;;;;;;;0.73;0.63;;;20.60;28.70;21.10;92756.00;;;;10254508;28;46231;-59
2021/12/25 10:28:11;;;;;;;1.15;0.70;;;20.60;28.70;21.10;92765.00;;;;10263434;28;47439;-60
2021/12/25 10:33:40;;;;;;;0.85;0.63;;;20.60;28.60;21.10;92745.00;;;;10253526;28;45275;-60
2021/12/25 10:38:58;;;;;;;0.82;0.60;;;20.60;28.70;21.10;92760.00;;;;10253346;28;47215;-60
2021/12/25 10:44:17;;;;;;;1.05;0.70;;;20.60;28.70;21.10;92755.00;;;;10265935;28;45760;-60
2021/12/25 10:49:19;;;;;;;1.00;0.70;;;20.60;28.70;21.10;92746.00;;;;10276111;28;45319;-60
2021/12/25 10:54:55;;;;;;;0.60;0.50;;;20.60;28.70;21.10;92748.00;;;;10273238;28;46322;-60
2021/12/25 10:59:56;;;;;;;0.50;0.50;;;20.60;28.70;21.10;92751.00;;;;10257162;28;47280;-61
2021/12/25 11:04:58;;;;;;;0.75;0.60;;;20.60;28.70;21.10;92741.00;;;;10273828;28;45521;-59
2021/12/25 11:10:10;;;;;;;0.98;0.60;;;20.60;28.70;21.10;92735.00;;;;10262842;28;45277;-61
2021/12/25 11:15:22;;;;;;;0.80;0.70;;;20.70;28.60;21.10;92722.00;;;;10258516;28;46082;-60
2021/12/25 11:20:33;;;;;;;1.23;0.80;;;20.60;28.60;21.10;92707.00;;;;10272965;28;46475;-61
2021/12/25 11:25:36;;;;;;;0.90;0.85;;;20.60;28.60;21.10;92729.00;;;;10257123;28;48479;-60
2021/12/25 11:30:45;;;;;;;1.10;0.80;;;20.60;28.60;21.10;92713.00;;;;10252313;28;46897;-60
2021/12/25 11:35:45;;;;;;;1.00;0.88;;;20.60;28.60;21.10;92713.00;;;;10272351;28;45430;-60
2021/12/25 11:40:52;;;;;;;1.88;1.00;;;20.70;28.60;21.10;92717.00;;;;10273280;28;45448;-59
2021/12/25 11:45:52;;;;;;;2.28;1.38;;;20.70;28.60;21.10;92712.00;;;;10272786;28;45320;-59
2021/12/25 11:50:53;;;;;;;2.88;1.70;;;20.70;28.60;21.10;92706.00;;;;10256667;28;48152;-59
2021/12/25 11:56:29;;;;;;;3.05;1.80;;;20.60;28.60;21.10;92709.00;;;;10274130;28;45553;-60
2021/12/25 12:01:48;;;;;;;2.70;1.73;;;20.60;28.60;21.10;92716.00;;;;10272412;28;45450;-61
2021/12/25 12:06:59;;;;;;;3.47;2.00;;;20.60;28.60;21.10;92699.00;;;;10271748;28;45248;-60
2021/12/25 12:12:03;;;;;;;3.22;2.00;;;20.60;28.60;21.10;92714.00;;;;10272857;28;45639;-59
2021/12/25 12:17:18;;;;;;;3.65;2.10;;;20.60;28.60;21.10;92709.00;;;;10271762;28;45216;-59
2021/12/25 12:27:41;;;;;;;;;;;20.60;28.60;21.10;92705.00;;;;10272827;28;45048;-60
2021/12/25 12:32:46;;;;;;;3.30;2.20;;;20.60;28.60;21.10;92704.00;;;;10271536;28;45554;-59
2021/12/25 12:37:46;;;;;;;3.38;2.00;;;20.60;28.60;21.10;92705.00;;;;10271394;28;45620;-60
2021/12/25 12:42:52;;;;;;;5.40;2.30;;;20.60;28.60;21.10;92700.00;;;;10271378;28;45366;-59
2021/12/25 12:48:22;;;;;;;6.13;3.00;;;20.70;28.70;21.10;92703.00;;;;10254630;28;46943;-60
2021/12/25 12:53:25;;;;;;;4.70;2.63;;;20.70;28.70;21.10;92696.00;;;;10271443;28;45125;-59
2021/12/25 12:58:27;;;;;;;4.88;2.83;;;20.60;28.70;21.10;92693.00;;;;10270890;28;45373;-60
2021/12/25 13:03:30;;;;;;;5.35;2.75;;;20.70;28.80;21.10;92705.00;;;;10272029;28;45496;-60
2021/12/25 13:08:35;;;;;;;6.90;3.20;;;20.60;28.70;21.10;92712.00;;;;10254481;28;47030;-60
2021/12/25 13:13:50;;;;;;;6.78;3.30;;;20.60;28.70;21.10;92708.00;;;;10270290;28;47145;-60
2021/12/25 13:18:54;;;;;;;4.93;2.80;;;20.60;28.70;21.10;92689.00;;;;10271781;28;46260;-60
2021/12/25 13:24:02;;;;;;;5.32;3.20;;;20.60;28.70;21.10;92694.00;;;;10254111;28;47221;-60
2021/12/25 13:29:08;;;;;;;5.82;3.20;;;20.60;28.70;21.10;92687.00;;;;10270396;28;45398;-60
2021/12/25 13:34:15;;;;;;;5.10;2.80;;;20.60;28.70;21.10;92679.00;;;;10253963;28;47133;-59
2021/12/25 13:39:23;;;;;;;4.57;2.65;;;20.60;28.70;21.10;92687.00;;;;10253619;28;47018;-60
2021/12/25 13:44:34;;;;;;;4.85;2.70;;;20.60;28.60;21.10;92688.00;;;;10260142;28;47310;-60
2021/12/25 13:49:44;;;;;;;4.22;2.45;;;20.70;28.70;21.10;92669.00;;;;10260685;28;46711;-59
2021/12/25 13:54:49;;;;;;;4.78;2.60;;;20.60;28.60;21.10;92686.00;;;;10276757;28;45190;-59
2021/12/25 13:59:58;;;;;;;4.20;2.60;;;20.60;28.60;21.10;92686.00;;;;10275799;28;45201;-60
2021/12/25 14:04:58;;;;;;;4.90;2.75;;;20.60;28.60;21.10;92688.00;;;;10275910;28;45434;-60
2021/12/25 14:10:15;;;;;;;3.80;2.40;;;20.60;28.60;21.10;92686.00;;;;10275690;28;46236;-60
2021/12/25 14:15:21;;;;;;;5.63;2.50;;;20.60;28.60;21.10;92691.00;;;;10275631;28;45453;-59
2021/12/25 14:20:26;;;;;;;4.25;2.30;;;20.60;28.60;21.10;92682.00;;;;10275352;28;45366;-60
2021/12/25 14:25:38;;;;;;;3.90;2.63;;;20.60;28.70;21.10;92675.00;;;;10275708;28;46233;-60
2021/12/25 14:31:02;;;;;;;3.10;2.05;;;20.60;28.60;21.10;92691.00;;;;10275996;28;45494;-60
2021/12/25 14:36:12;;;;;;;3.88;2.25;;;20.70;28.70;21.10;92689.00;;;;10276225;28;45341;-60
2021/12/25 14:41:15;;;;;;;4.05;2.25;;;20.60;28.50;21.10;92697.00;;;;10275332;28;46440;-60
2021/12/25 14:46:20;;;;;;;4.40;2.55;;;20.60;28.60;21.10;92696.00;;;;10274228;28;45461;-59
2021/12/25 14:51:23;;;;;;;3.40;1.97;;;20.70;28.70;21.10;92687.00;;;;10274756;28;45163;-59
2021/12/25 14:56:29;;;;;;;4.32;2.30;;;20.70;28.70;21.10;92691.00;;;;10274135;28;46426;-61
2021/12/25 15:01:40;;;;;;;3.83;2.20;;;20.60;28.70;21.10;92681.00;;;;10274625;28;45718;-60
2021/12/25 15:06:51;;;;;;;3.55;2.22;;;20.60;28.80;21.10;92694.00;;;;10274294;28;46401;-60
2021/12/25 15:12:30;;;;;;;3.30;2.20;;;20.60;28.80;21.10;92686.00;;;;10274255;28;45600;-60
2021/12/25 15:17:31;;;;;;;3.08;2.20;;;20.60;28.80;21.10;92690.00;;;;10270056;28;46479;-60
2021/12/25 15:22:32;;;;;;;3.22;2.17;;;20.60;28.80;21.10;92700.00;;;;10247579;28;45634;-59
2021/12/25 15:27:41;;;;;;;3.25;2.00;;;20.60;28.80;21.10;92689.00;;;;10232992;28;45173;-60
2021/12/25 15:32:51;;;;;;;3.45;2.20;;;20.60;28.90;21.10;92709.00;;;;10264472;28;45218;-60
2021/12/25 15:37:52;;;;;;;3.03;1.80;;;20.70;28.90;21.10;92704.00;;;;10274280;28;45404;-60
2021/12/25 15:42:53;;;;;;;3.15;1.95;;;20.70;28.90;21.10;92711.00;;;;10252667;28;45473;-59
2021/12/25 15:47:55;;;;;;;3.03;1.88;;;20.60;28.90;21.10;92717.00;;;;10247556;28;45298;-60
2021/12/25 15:52:58;;;;;;;3.30;2.25;;;20.70;28.90;21.10;92704.00;;;;10251947;28;46050;-60
2021/12/25 15:58:06;;;;;;;2.90;1.80;;;20.70;28.90;21.10;92707.00;;;;10240499;28;46929;-59
2021/12/25 16:03:07;;;;;;;4.07;2.35;;;20.70;29.00;21.10;92720.00;;;;10272455;28;45313;-60
2021/12/25 16:08:08;;;;;;;3.70;2.10;;;20.70;28.90;21.10;92723.00;;;;10271594;28;47426;-60
2021/12/25 16:13:09;;;;;;;2.78;1.92;;;20.70;28.90;21.10;92715.00;;;;10273159;28;45254;-59
2021/12/25 16:18:10;;;;;;;2.53;1.85;;;20.70;28.90;21.20;92723.00;;;;10272871;28;45256;-59
2021/12/25 16:23:11;;;;;;;3.28;2.17;;;20.70;28.90;21.10;92721.00;;;;10271917;28;45467;-60
2021/12/25 16:28:13;;;;;;;3.60;2.50;;;20.70;28.80;21.10;92709.00;;;;10271425;28;46584;-60
2021/12/25 16:33:15;;;;;;;4.97;3.22;;;20.70;28.80;21.10;92718.00;;;;10271473;28;45208;-60
2021/12/25 16:38:16;;;;;;;5.78;3.75;;;20.70;28.80;21.10;92715.00;;;;10270965;28;45184;-59
2021/12/25 16:43:16;;;;;;;5.47;3.50;;;20.70;28.90;21.10;92713.00;;;;10271601;28;45566;-59
2021/12/25 16:48:17;;;;;;;5.45;3.42;;;20.70;28.80;21.10;92711.00;;;;10270751;28;45658;-59
2021/12/25 16:53:20;;;;;;;5.22;3.75;;;20.70;28.80;21.20;92713.00;;;;10271394;28;45396;-60
2021/12/25 16:58:21;;;;;;;5.63;3.50;;;20.70;28.80;21.10;92723.00;;;;10269624;28;45541;-60
2021/12/25 17:03:22;;;;;;;6.07;3.95;;;20.70;28.80;21.10;92718.00;;;;10271213;28;48205;-59
2021/12/25 17:08:23;;;;;;;5.22;3.60;;;20.70;28.80;21.10;92724.00;;;;10270203;28;45382;-59
2021/12/25 17:13:24;;;;;;;5.10;3.50;;;20.70;28.80;21.10;92733.00;;;;10270575;28;45164;-59
2021/12/25 17:18:25;;;;;;;4.65;3.08;;;20.70;28.70;21.10;92735.00;;;;10275589;28;46480;-61
2021/12/25 17:23:27;;;;;;;5.10;3.25;;;20.70;28.70;21.10;92742.00;;;;10277274;28;46836;-60
2021/12/25 17:28:29;;;;;;;4.28;2.90;;;20.70;28.70;21.10;92736.00;;;;10277093;28;45261;-59
2021/12/25 17:33:31;;;;;;;5.15;3.10;;;20.70;28.70;21.20;92744.00;;;;10277741;28;46412;-60
2021/12/25 17:38:36;;;;;;;4.10;2.90;;;20.70;28.70;21.10;92748.00;;;;10276766;28;45301;-60
2021/12/25 17:43:42;;;;;;;3.70;2.45;;;20.70;28.70;21.20;92735.00;;;;10277110;28;45549;-60
2021/12/25 17:48:43;;;;;;;4.47;2.90;;;20.70;28.70;21.20;92747.00;;;;10277063;28;46201;-60
2021/12/25 17:53:44;;;;;;;4.35;2.88;;;20.70;28.60;21.20;92746.00;;;;10276887;28;46484;-59
2021/12/25 17:58:44;;;;;;;4.40;2.30;;;20.70;28.60;21.20;92740.00;;;;10277351;28;46266;-59
2021/12/25 18:03:47;;;;;;;3.85;2.35;;;20.70;28.60;21.20;92744.00;;;;10219972;28;45387;-60
2021/12/25 18:08:48;;;;;;;4.05;2.33;;;20.70;28.60;21.20;92725.00;;;;10182233;28;45312;-60
2021/12/25 18:13:53;;;;;;;3.00;2.05;;;20.70;28.60;21.20;92736.00;;;;10197190;28;45365;-59
2021/12/25 18:18:55;;;;;;;3.58;2.30;;;20.70;28.60;21.10;92735.00;;;;10195953;28;45270;-60
2021/12/25 18:23:55;;;;;;;3.30;2.08;;;20.70;28.60;21.10;92721.00;;;;10196082;28;46306;-61
2021/12/25 18:28:56;;;;;;;2.92;2.00;;;20.70;28.60;21.10;92713.00;;;;10194679;28;48386;-60
2021/12/25 18:33:57;;;;;;;2.58;1.80;;;20.70;28.60;21.20;92739.00;;;;10195279;28;46216;-61
2021/12/25 18:39:00;;;;;;;3.65;2.20;;;20.70;28.60;21.10;92728.00;;;;10194922;28;45973;-61
2021/12/25 18:44:02;;;;;;;2.97;2.10;;;20.70;28.50;21.10;92731.00;;;;10192192;28;48311;-61
2021/12/25 18:49:03;;;;;;;3.60;2.60;;;20.70;28.50;21.10;92726.00;;;;10192530;28;45513;-61
2021/12/25 18:54:04;;;;;;;3.30;2.30;;;20.70;28.50;21.20;92740.00;;;;10248669;23;45326;-63
2021/12/25 18:59:06;;;;;;;3.20;2.20;;;20.70;28.50;21.20;92725.00;;;;10217816;28;47295;-63
2021/12/25 19:04:06;;;;;;;2.85;2.22;;;20.80;28.50;21.30;92731.00;;;;10235478;28;45217;-63
2021/12/25 19:09:09;;;;;;;2.40;2.00;;;20.80;28.40;21.30;92734.00;;;;10234102;28;45400;-63
2021/12/25 19:14:09;;;;;;;2.28;1.90;;;20.80;28.30;21.40;92728.00;;;;10229145;28;48200;-63
2021/12/25 19:19:10;;;;;;;2.08;1.88;;;20.90;28.30;21.40;92728.00;;;;10215827;28;48171;-62
2021/12/25 19:24:12;;;;;;;2.50;1.85;;;20.90;28.20;21.40;92736.00;;;;10194155;28;47116;-62
2021/12/25 19:29:13;;;;;;;2.00;1.67;;;20.90;28.20;21.40;92737.00;;;;10193782;28;47696;-62
2021/12/25 19:34:15;;;;;;;1.85;1.65;;;20.90;28.20;21.40;92718.00;;;;10193692;28;46750;-62
2021/12/25 19:39:15;;;;;;;3.42;1.70;;;20.90;28.10;21.40;92724.00;;;;10193978;28;45325;-63
2021/12/25 19:44:17;;;;;;;2.55;1.88;;;20.90;28.10;21.40;92725.00;;;;10193647;28;45384;-62
2021/12/25 19:49:18;;;;;;;2.78;1.60;;;21.00;28.10;21.40;92725.00;;;;10193547;28;45615;-62
2021/12/25 19:54:20;;;;;;;1.90;1.50;;;21.00;28.10;21.50;92734.00;;;;10194232;28;46795;-62
2021/12/25 19:59:21;;;;;;;2.13;1.60;;;21.00;28.10;21.50;92732.00;;;;10193054;28;45494;-62
2021/12/25 20:04:22;;;;;;;3.08;1.80;;;21.00;28.10;21.50;92723.00;;;;10193195;28;45571;-62
2021/12/25 20:09:23;;;;;;;2.47;1.65;;;21.00;28.10;21.50;92719.00;;;;10193038;28;45710;-62
2021/12/25 20:14:24;;;;;;;2.53;1.70;;;21.00;28.00;21.50;92714.00;;;;10218931;28;45394;-62
2021/12/25 20:19:25;;;;;;;2.55;1.88;;;21.00;28.00;21.50;92722.00;;;;10232204;28;45211;-62
2021/12/25 20:24:25;;;;;;;3.10;2.38;;;21.00;28.00;21.50;92731.00;;;;10231949;28;45394;-62
2021/12/25 20:29:27;;;;;;;2.70;1.80;;;21.00;28.00;21.50;92740.00;;;;10247944;28;47225;-62
2021/12/25 20:34:28;;;;;;;2.35;1.80;;;21.00;28.00;21.50;92744.00;;;;10231835;28;46066;-62
2021/12/25 20:39:29;;;;;;;2.60;1.90;;;21.00;28.00;21.50;92739.00;;;;10231493;28;47165;-61
2021/12/25 20:49:37;;;;;;;2.90;2.00;;;21.00;28.50;21.50;92740.00;;;;10230175;28;45158;-62
2021/12/25 20:54:39;;;;;;;2.53;1.95;;;21.00;28.00;21.50;92725.00;;;;10230240;28;46268;-62
2021/12/25 20:59:40;;;;;;;2.22;1.80;;;21.00;27.90;21.50;92725.00;;;;10230988;28;45588;-62
2021/12/25 21:04:41;;;;;;;2.63;2.08;;;21.00;27.90;21.50;92745.00;;;;10230939;28;45279;-63
2021/12/25 21:09:42;;;;;;;2.70;2.08;;;21.10;27.90;21.50;92742.00;;;;10230842;28;47959;-62
2021/12/25 21:14:42;;;;;;;2.17;1.60;;;21.00;27.90;21.50;92735.00;;;;10229694;28;48056;-62
2021/12/25 21:19:43;;;;;;;1.92;1.60;;;21.00;27.80;21.50;92731.00;;;;10229653;28;46500;-62
2021/12/25 21:24:44;;;;;;;2.40;1.80;;;21.00;27.80;21.40;92729.00;;;;10214138;28;47330;-63
2021/12/25 21:29:46;;;;;;;1.90;1.63;;;21.00;27.80;21.40;92722.00;;;;10230319;28;47074;-62
2021/12/25 21:34:47;;;;;;;2.20;1.60;;;21.00;27.80;21.40;92732.00;;;;10230283;28;45310;-62
2021/12/25 21:39:47;;;;;;;1.63;1.50;;;20.90;27.80;21.40;92732.00;;;;10231810;28;45414;-62
2021/12/25 21:44:48;;;;;;;1.52;1.33;;;20.90;27.80;21.30;92719.00;;;;10230025;28;46009;-62
2021/12/25 21:49:49;;;;;;;2.00;1.50;;;20.90;27.80;21.30;92742.00;;;;10229629;28;46262;-62
2021/12/25 21:54:50;;;;;;;2.10;1.60;;;20.80;27.80;21.30;92751.00;;;;10230036;28;45172;-61
2021/12/25 21:59:50;;;;;;;1.58;1.13;;;20.80;27.90;21.30;92748.00;;;;10229736;28;45230;-62
2021/12/25 22:04:56;;;;;;;1.83;1.40;;;20.80;27.90;21.20;92745.00;;;;10235104;28;46682;-62
2021/12/25 22:10:03;;;;;;;2.10;1.30;;;20.80;27.90;21.20;92748.00;;;;10236670;28;45628;-62
2021/12/25 22:15:07;;;;;;;1.80;1.33;;;20.80;27.90;21.20;92738.00;;;;10235692;28;45529;-62
2021/12/25 22:20:12;;;;;;;2.25;1.20;;;20.80;27.90;21.20;92744.00;;;;10234098;28;46368;-62
2021/12/25 22:25:16;;;;;;;1.42;1.20;;;20.80;27.90;21.20;92749.00;;;;10216765;28;46758;-62
2021/12/25 22:30:24;;;;;;;1.13;1.02;;;20.70;27.90;21.20;92749.00;;;;10235614;28;46289;-61
2021/12/25 22:35:26;;;;;;;2.20;1.30;;;20.70;27.90;21.20;92740.00;;;;10235824;28;47864;-62
2021/12/25 22:40:29;;;;;;;1.15;0.90;;;20.70;27.90;21.10;92734.00;;;;10235569;28;45238;-61
2021/12/25 22:45:30;;;;;;;1.35;1.20;;;20.70;28.00;21.10;92732.00;;;;10235204;28;46439;-62
2021/12/25 22:50:31;;;;;;;2.00;1.40;;;20.70;28.00;21.10;92734.00;;;;10236079;28;45291;-61
2021/12/25 22:55:33;;;;;;;1.77;1.27;;;20.60;28.00;21.10;92732.00;;;;10235603;28;45489;-61
2021/12/25 23:00:48;;;;;;;1.35;1.15;;;20.60;28.00;21.10;92728.00;;;;10234880;28;45617;-61
2021/12/25 23:05:49;;;;;;;1.35;1.08;;;20.60;28.00;21.10;92726.00;;;;10235998;28;45202;-61
2021/12/25 23:10:55;;;;;;;1.48;1.10;;;20.60;28.00;21.10;92722.00;;;;10234604;28;45330;-61
2021/12/25 23:15:57;;;;;;;1.17;0.90;;;20.60;28.00;21.10;92739.00;;;;10232654;28;47263;-61
2021/12/25 23:21:04;;;;;;;1.25;1.00;;;20.60;28.00;21.00;92715.00;;;;10234151;28;45483;-61
2021/12/25 23:26:06;;;;;;;1.10;1.00;;;20.60;28.00;21.00;92735.00;;;;10233184;28;46948;-61
2021/12/25 23:31:08;;;;;;;1.35;1.00;;;20.60;28.00;21.00;92732.00;;;;10233990;28;45323;-61
2021/12/25 23:36:10;;;;;;;1.33;1.00;;;20.50;27.90;21.00;92728.00;;;;10234937;28;45351;-61
2021/12/25 23:41:14;;;;;;;1.23;0.95;;;20.60;28.00;21.00;92727.00;;;;10234492;28;45991;-61